sensor_id;sensor_type;location;lat;lon;timestamp;P1;durP1;ratioP1;P2;durP2;ratioP2
25531;SDS011;13429;48.816;9.118;2023-01-10T00:02:09;0.88;;;0.50;;
25531;SDS011;13429;48.816;9.118;2023-01-10T00:04:35;0.70;;;0.60;;
25531;SDS011;13429;48.816;9.118;2023-01-10T00:07:01;0.88;;;0.60;;
25531;SDS011;13429;48.816;9.118;2023-01-10T00:09:27;1.70;;;0.47;;
25531;SDS011;13429;48.816;9.118;2023-01-10T00:11:53;1.88;;;0.77;;
25531;SDS011;13429;48.816;9.118;2023-01-10T00:14:38;2.60;;;0.40;;
25531;SDS011;13429;48.816;9.118;2023-01-10T00:17:04;1.60;;;0.77;;
25531;SDS011;13429;48.816;9.118;2023-01-10T00:19:30;1.10;;;0.50;;
25531;SDS011;13429;48.816;9.118;2023-01-10T00:21:56;1.35;;;0.70;;
25531;SDS011;13429;48.816;9.118;2023-01-10T00:24:26;2.03;;;0.80;;
25531;SDS011;13429;48.816;9.118;2023-01-10T00:26:52;1.20;;;0.73;;
25531;SDS011;13429;48.816;9.118;2023-01-10T00:29:18;1.25;;;0.85;;
25531;SDS011;13429;48.816;9.118;2023-01-10T00:31:45;1.23;;;0.98;;
25531;SDS011;13429;48.816;9.118;2023-01-10T00:34:11;2.65;;;1.33;;
25531;SDS011;13429;48.816;9.118;2023-01-10T00:36:37;1.63;;;0.80;;
25531;SDS011;13429;48.816;9.118;2023-01-10T00:39:03;1.60;;;0.95;;
25531;SDS011;13429;48.816;9.118;2023-01-10T00:41:29;2.15;;;0.90;;
25531;SDS011;13429;48.816;9.118;2023-01-10T00:44:14;4.05;;;1.52;;
25531;SDS011;13429;48.816;9.118;2023-01-10T00:46:40;4.10;;;1.63;;
25531;SDS011;13429;48.816;9.118;2023-01-10T00:49:06;1.67;;;1.33;;
25531;SDS011;13429;48.816;9.118;2023-01-10T00:51:32;2.20;;;1.60;;
25531;SDS011;13429;48.816;9.118;2023-01-10T00:53:58;4.20;;;1.60;;
25531;SDS011;13429;48.816;9.118;2023-01-10T00:56:25;2.75;;;1.83;;
25531;SDS011;13429;48.816;9.118;2023-01-10T00:58:51;3.97;;;1.90;;
25531;SDS011;13429;48.816;9.118;2023-01-10T01:01:16;2.40;;;1.67;;
25531;SDS011;13429;48.816;9.118;2023-01-10T01:03:42;2.65;;;1.70;;
25531;SDS011;13429;48.816;9.118;2023-01-10T01:06:08;2.28;;;1.60;;
25531;SDS011;13429;48.816;9.118;2023-01-10T01:08:34;8.57;;;2.30;;
25531;SDS011;13429;48.816;9.118;2023-01-10T01:11:00;4.97;;;1.70;;
25531;SDS011;13429;48.816;9.118;2023-01-10T01:13:26;2.10;;;1.52;;
25531;SDS011;13429;48.816;9.118;2023-01-10T01:15:52;2.95;;;1.48;;
25531;SDS011;13429;48.816;9.118;2023-01-10T01:18:21;2.50;;;1.48;;
25531;SDS011;13429;48.816;9.118;2023-01-10T01:20:51;5.57;;;1.42;;
25531;SDS011;13429;48.816;9.118;2023-01-10T01:23:17;4.13;;;1.42;;
25531;SDS011;13429;48.816;9.118;2023-01-10T01:25:43;1.58;;;1.13;;
25531;SDS011;13429;48.816;9.118;2023-01-10T01:28:11;1.48;;;1.02;;
25531;SDS011;13429;48.816;9.118;2023-01-10T01:30:37;1.65;;;1.05;;
25531;SDS011;13429;48.816;9.118;2023-01-10T01:33:03;3.83;;;1.23;;
25531;SDS011;13429;48.816;9.118;2023-01-10T01:35:29;1.08;;;0.80;;
25531;SDS011;13429;48.816;9.118;2023-01-10T01:37:57;1.73;;;1.00;;
25531;SDS011;13429;48.816;9.118;2023-01-10T01:40:23;1.95;;;0.95;;
25531;SDS011;13429;48.816;9.118;2023-01-10T01:42:49;3.78;;;0.70;;
25531;SDS011;13429;48.816;9.118;2023-01-10T01:47:53;1.58;;;0.55;;
25531;SDS011;13429;48.816;9.118;2023-01-10T01:50:21;2.00;;;0.98;;
25531;SDS011;13429;48.816;9.118;2023-01-10T01:52:50;2.15;;;0.90;;
25531;SDS011;13429;48.816;9.118;2023-01-10T01:55:17;0.90;;;0.70;;
25531;SDS011;13429;48.816;9.118;2023-01-10T01:57:43;2.03;;;0.68;;
25531;SDS011;13429;48.816;9.118;2023-01-10T02:00:11;3.00;;;1.00;;
25531;SDS011;13429;48.816;9.118;2023-01-10T02:02:43;0.77;;;0.70;;
25531;SDS011;13429;48.816;9.118;2023-01-10T02:05:11;4.03;;;1.00;;
25531;SDS011;13429;48.816;9.118;2023-01-10T02:07:39;1.30;;;0.80;;
25531;SDS011;13429;48.816;9.118;2023-01-10T02:10:08;1.48;;;0.93;;
25531;SDS011;13429;48.816;9.118;2023-01-10T02:12:35;2.92;;;1.20;;
25531;SDS011;13429;48.816;9.118;2023-01-10T02:15:02;1.98;;;1.15;;
25531;SDS011;13429;48.816;9.118;2023-01-10T02:17:28;2.10;;;1.20;;
25531;SDS011;13429;48.816;9.118;2023-01-10T02:19:55;1.40;;;0.95;;
25531;SDS011;13429;48.816;9.118;2023-01-10T02:30:32;5.22;;;1.92;;
25531;SDS011;13429;48.816;9.118;2023-01-10T02:33:19;3.97;;;1.83;;
25531;SDS011;13429;48.816;9.118;2023-01-10T02:35:57;5.28;;;1.80;;
25531;SDS011;13429;48.816;9.118;2023-01-10T02:38:46;3.75;;;1.50;;
25531;SDS011;13429;48.816;9.118;2023-01-10T02:41:20;2.45;;;1.88;;
25531;SDS011;13429;48.816;9.118;2023-01-10T02:43:52;3.60;;;1.80;;
25531;SDS011;13429;48.816;9.118;2023-01-10T02:46:21;3.75;;;2.05;;
25531;SDS011;13429;48.816;9.118;2023-01-10T02:48:51;4.60;;;2.00;;
25531;SDS011;13429;48.816;9.118;2023-01-10T02:51:18;4.47;;;1.75;;
25531;SDS011;13429;48.816;9.118;2023-01-10T02:53:50;3.90;;;1.67;;
25531;SDS011;13429;48.816;9.118;2023-01-10T02:56:30;2.90;;;1.70;;
25531;SDS011;13429;48.816;9.118;2023-01-10T03:04:12;4.03;;;1.90;;
25531;SDS011;13429;48.816;9.118;2023-01-10T03:06:47;4.10;;;1.95;;
25531;SDS011;13429;48.816;9.118;2023-01-10T03:09:29;7.78;;;2.13;;
25531;SDS011;13429;48.816;9.118;2023-01-10T03:12:00;5.93;;;2.45;;
25531;SDS011;13429;48.816;9.118;2023-01-10T03:14:28;6.82;;;2.45;;
25531;SDS011;13429;48.816;9.118;2023-01-10T03:16:57;8.23;;;3.28;;
25531;SDS011;13429;48.816;9.118;2023-01-10T03:19:26;8.88;;;2.78;;
25531;SDS011;13429;48.816;9.118;2023-01-10T03:21:54;6.65;;;3.20;;
25531;SDS011;13429;48.816;9.118;2023-01-10T03:24:29;6.38;;;3.00;;
25531;SDS011;13429;48.816;9.118;2023-01-10T03:26:57;5.53;;;3.15;;
25531;SDS011;13429;48.816;9.118;2023-01-10T03:29:26;9.82;;;3.15;;
25531;SDS011;13429;48.816;9.118;2023-01-10T03:31:55;7.22;;;3.65;;
25531;SDS011;13429;48.816;9.118;2023-01-10T03:34:21;9.80;;;4.00;;
25531;SDS011;13429;48.816;9.118;2023-01-10T03:36:56;8.20;;;3.30;;
25531;SDS011;13429;48.816;9.118;2023-01-10T03:39:35;4.28;;;3.05;;
25531;SDS011;13429;48.816;9.118;2023-01-10T03:42:06;9.55;;;3.47;;
25531;SDS011;13429;48.816;9.118;2023-01-10T03:44:37;7.85;;;2.55;;
25531;SDS011;13429;48.816;9.118;2023-01-10T03:49:38;9.73;;;3.30;;
25531;SDS011;13429;48.816;9.118;2023-01-10T03:52:06;9.07;;;3.38;;
25531;SDS011;13429;48.816;9.118;2023-01-10T03:54:33;6.28;;;2.75;;
25531;SDS011;13429;48.816;9.118;2023-01-10T03:56:59;5.70;;;2.40;;
25531;SDS011;13429;48.816;9.118;2023-01-10T03:59:25;5.28;;;2.90;;
25531;SDS011;13429;48.816;9.118;2023-01-10T04:01:52;4.70;;;2.90;;
25531;SDS011;13429;48.816;9.118;2023-01-10T04:04:18;10.20;;;2.72;;
25531;SDS011;13429;48.816;9.118;2023-01-10T04:06:44;5.45;;;3.22;;
25531;SDS011;13429;48.816;9.118;2023-01-10T04:09:11;6.03;;;2.22;;
25531;SDS011;13429;48.816;9.118;2023-01-10T04:11:37;7.28;;;2.30;;
25531;SDS011;13429;48.816;9.118;2023-01-10T04:14:03;6.07;;;2.75;;
25531;SDS011;13429;48.816;9.118;2023-01-10T04:16:29;11.27;;;2.70;;
25531;SDS011;13429;48.816;9.118;2023-01-10T04:18:55;10.50;;;2.58;;
25531;SDS011;13429;48.816;9.118;2023-01-10T04:21:21;5.78;;;3.08;;
25531;SDS011;13429;48.816;9.118;2023-01-10T04:23:47;8.68;;;3.53;;
25531;SDS011;13429;48.816;9.118;2023-01-10T04:26:13;6.85;;;2.63;;
25531;SDS011;13429;48.816;9.118;2023-01-10T04:28:39;11.70;;;3.22;;
25531;SDS011;13429;48.816;9.118;2023-01-10T04:31:05;6.55;;;3.05;;
25531;SDS011;13429;48.816;9.118;2023-01-10T04:33:31;6.85;;;2.80;;
25531;SDS011;13429;48.816;9.118;2023-01-10T04:35:57;6.55;;;2.78;;
25531;SDS011;13429;48.816;9.118;2023-01-10T04:38:23;7.18;;;2.83;;
25531;SDS011;13429;48.816;9.118;2023-01-10T04:40:52;10.82;;;2.67;;
25531;SDS011;13429;48.816;9.118;2023-01-10T04:43:19;10.20;;;2.95;;
25531;SDS011;13429;48.816;9.118;2023-01-10T04:45:45;8.30;;;2.92;;
25531;SDS011;13429;48.816;9.118;2023-01-10T04:48:11;8.13;;;3.50;;
25531;SDS011;13429;48.816;9.118;2023-01-10T04:50:37;11.98;;;3.35;;
25531;SDS011;13429;48.816;9.118;2023-01-10T04:53:03;9.40;;;3.17;;
25531;SDS011;13429;48.816;9.118;2023-01-10T04:55:30;12.35;;;3.33;;
25531;SDS011;13429;48.816;9.118;2023-01-10T04:57:56;13.35;;;3.35;;
25531;SDS011;13429;48.816;9.118;2023-01-10T05:00:22;21.48;;;3.75;;
25531;SDS011;13429;48.816;9.118;2023-01-10T05:02:48;11.18;;;3.45;;
25531;SDS011;13429;48.816;9.118;2023-01-10T05:05:14;13.70;;;3.67;;
25531;SDS011;13429;48.816;9.118;2023-01-10T05:07:40;16.10;;;3.95;;
25531;SDS011;13429;48.816;9.118;2023-01-10T05:10:07;10.30;;;3.08;;
25531;SDS011;13429;48.816;9.118;2023-01-10T05:12:33;13.18;;;3.30;;
25531;SDS011;13429;48.816;9.118;2023-01-10T05:14:59;10.35;;;3.10;;
25531;SDS011;13429;48.816;9.118;2023-01-10T05:17:25;11.70;;;3.60;;
25531;SDS011;13429;48.816;9.118;2023-01-10T05:19:51;19.15;;;3.45;;
25531;SDS011;13429;48.816;9.118;2023-01-10T05:22:17;23.52;;;3.90;;
25531;SDS011;13429;48.816;9.118;2023-01-10T05:24:43;22.75;;;3.95;;
25531;SDS011;13429;48.816;9.118;2023-01-10T05:27:09;12.88;;;3.70;;
25531;SDS011;13429;48.816;9.118;2023-01-10T05:29:35;15.68;;;3.45;;
25531;SDS011;13429;48.816;9.118;2023-01-10T05:32:01;12.98;;;3.63;;
25531;SDS011;13429;48.816;9.118;2023-01-10T05:34:27;15.77;;;3.40;;
25531;SDS011;13429;48.816;9.118;2023-01-10T05:39:56;12.60;;;3.53;;
25531;SDS011;13429;48.816;9.118;2023-01-10T05:42:22;16.15;;;2.97;;
25531;SDS011;13429;48.816;9.118;2023-01-10T05:44:48;9.45;;;3.22;;
25531;SDS011;13429;48.816;9.118;2023-01-10T05:47:14;8.98;;;2.38;;
25531;SDS011;13429;48.816;9.118;2023-01-10T05:49:40;15.25;;;2.75;;
25531;SDS011;13429;48.816;9.118;2023-01-10T05:52:06;13.13;;;2.88;;
25531;SDS011;13429;48.816;9.118;2023-01-10T05:54:32;10.55;;;2.53;;
25531;SDS011;13429;48.816;9.118;2023-01-10T05:56:58;10.45;;;2.35;;
25531;SDS011;13429;48.816;9.118;2023-01-10T05:59:24;11.32;;;2.70;;
25531;SDS011;13429;48.816;9.118;2023-01-10T06:01:50;16.05;;;3.53;;
25531;SDS011;13429;48.816;9.118;2023-01-10T06:04:16;7.18;;;2.40;;
25531;SDS011;13429;48.816;9.118;2023-01-10T06:06:42;18.08;;;3.50;;
25531;SDS011;13429;48.816;9.118;2023-01-10T06:09:08;9.30;;;2.60;;
25531;SDS011;13429;48.816;9.118;2023-01-10T06:11:34;17.52;;;3.20;;
25531;SDS011;13429;48.816;9.118;2023-01-10T06:14:02;13.30;;;3.08;;
25531;SDS011;13429;48.816;9.118;2023-01-10T06:16:28;13.35;;;3.75;;
25531;SDS011;13429;48.816;9.118;2023-01-10T06:18:54;7.43;;;2.55;;
25531;SDS011;13429;48.816;9.118;2023-01-10T06:21:20;11.85;;;3.28;;
25531;SDS011;13429;48.816;9.118;2023-01-10T06:23:46;11.52;;;3.05;;
25531;SDS011;13429;48.816;9.118;2023-01-10T06:26:12;8.68;;;2.50;;
25531;SDS011;13429;48.816;9.118;2023-01-10T06:28:38;15.93;;;3.38;;
25531;SDS011;13429;48.816;9.118;2023-01-10T06:31:07;12.00;;;2.45;;
25531;SDS011;13429;48.816;9.118;2023-01-10T06:33:33;14.40;;;2.75;;
25531;SDS011;13429;48.816;9.118;2023-01-10T06:35:59;10.25;;;3.90;;
25531;SDS011;13429;48.816;9.118;2023-01-10T06:38:25;9.32;;;2.30;;
25531;SDS011;13429;48.816;9.118;2023-01-10T06:40:51;11.20;;;2.63;;
25531;SDS011;13429;48.816;9.118;2023-01-10T06:43:17;13.02;;;2.30;;
25531;SDS011;13429;48.816;9.118;2023-01-10T06:45:50;12.48;;;2.33;;
25531;SDS011;13429;48.816;9.118;2023-01-10T06:48:16;10.88;;;2.30;;
25531;SDS011;13429;48.816;9.118;2023-01-10T06:50:42;11.02;;;2.10;;
25531;SDS011;13429;48.816;9.118;2023-01-10T06:53:23;9.30;;;2.83;;
25531;SDS011;13429;48.816;9.118;2023-01-10T06:55:49;9.30;;;1.98;;
25531;SDS011;13429;48.816;9.118;2023-01-10T06:58:15;9.05;;;2.13;;
25531;SDS011;13429;48.816;9.118;2023-01-10T07:00:42;11.77;;;2.38;;
25531;SDS011;13429;48.816;9.118;2023-01-10T07:03:08;12.52;;;2.92;;
25531;SDS011;13429;48.816;9.118;2023-01-10T07:05:34;8.50;;;2.70;;
25531;SDS011;13429;48.816;9.118;2023-01-10T07:08:00;7.57;;;2.20;;
25531;SDS011;13429;48.816;9.118;2023-01-10T07:10:26;10.90;;;2.63;;
25531;SDS011;13429;48.816;9.118;2023-01-10T07:12:56;13.38;;;2.17;;
25531;SDS011;13429;48.816;9.118;2023-01-10T07:15:22;10.15;;;2.80;;
25531;SDS011;13429;48.816;9.118;2023-01-10T07:17:49;12.30;;;2.45;;
25531;SDS011;13429;48.816;9.118;2023-01-10T07:20:15;13.93;;;2.20;;
25531;SDS011;13429;48.816;9.118;2023-01-10T07:22:41;11.45;;;2.42;;
25531;SDS011;13429;48.816;9.118;2023-01-10T07:25:07;7.18;;;2.28;;
25531;SDS011;13429;48.816;9.118;2023-01-10T07:27:33;8.40;;;1.80;;
25531;SDS011;13429;48.816;9.118;2023-01-10T07:29:59;13.43;;;2.83;;
25531;SDS011;13429;48.816;9.118;2023-01-10T07:32:25;15.68;;;2.88;;
25531;SDS011;13429;48.816;9.118;2023-01-10T07:34:51;10.55;;;2.40;;
25531;SDS011;13429;48.816;9.118;2023-01-10T07:37:17;9.00;;;1.85;;
25531;SDS011;13429;48.816;9.118;2023-01-10T07:39:43;11.05;;;2.22;;
25531;SDS011;13429;48.816;9.118;2023-01-10T07:42:09;8.15;;;2.38;;
25531;SDS011;13429;48.816;9.118;2023-01-10T07:44:35;13.05;;;2.10;;
25531;SDS011;13429;48.816;9.118;2023-01-10T07:47:02;9.32;;;2.38;;
25531;SDS011;13429;48.816;9.118;2023-01-10T07:49:28;7.28;;;2.20;;
25531;SDS011;13429;48.816;9.118;2023-01-10T07:51:54;15.93;;;2.90;;
25531;SDS011;13429;48.816;9.118;2023-01-10T07:54:20;10.25;;;1.73;;
25531;SDS011;13429;48.816;9.118;2023-01-10T07:56:46;17.58;;;2.67;;
25531;SDS011;13429;48.816;9.118;2023-01-10T07:59:12;9.75;;;2.10;;
25531;SDS011;13429;48.816;9.118;2023-01-10T08:02:23;7.80;;;1.98;;
25531;SDS011;13429;48.816;9.118;2023-01-10T08:04:30;12.40;;;2.15;;
25531;SDS011;13429;48.816;9.118;2023-01-10T08:06:57;8.95;;;1.92;;
25531;SDS011;13429;48.816;9.118;2023-01-10T08:09:22;10.13;;;2.55;;
25531;SDS011;13429;48.816;9.118;2023-01-10T08:11:48;10.95;;;2.65;;
25531;SDS011;13429;48.816;9.118;2023-01-10T08:14:14;8.45;;;2.20;;
25531;SDS011;13429;48.816;9.118;2023-01-10T08:16:40;14.18;;;2.22;;
25531;SDS011;13429;48.816;9.118;2023-01-10T08:19:06;9.98;;;2.10;;
25531;SDS011;13429;48.816;9.118;2023-01-10T08:21:32;9.95;;;2.38;;
25531;SDS011;13429;48.816;9.118;2023-01-10T08:23:58;12.27;;;3.50;;
25531;SDS011;13429;48.816;9.118;2023-01-10T08:26:24;15.20;;;2.83;;
25531;SDS011;13429;48.816;9.118;2023-01-10T08:28:50;6.05;;;1.85;;
25531;SDS011;13429;48.816;9.118;2023-01-10T08:31:16;11.65;;;2.47;;
25531;SDS011;13429;48.816;9.118;2023-01-10T08:33:42;9.23;;;2.28;;
25531;SDS011;13429;48.816;9.118;2023-01-10T08:36:18;6.05;;;2.15;;
25531;SDS011;13429;48.816;9.118;2023-01-10T08:38:46;4.82;;;2.13;;
25531;SDS011;13429;48.816;9.118;2023-01-10T08:41:12;7.63;;;2.22;;
25531;SDS011;13429;48.816;9.118;2023-01-10T08:43:38;12.93;;;2.83;;
25531;SDS011;13429;48.816;9.118;2023-01-10T08:46:07;10.95;;;2.50;;
25531;SDS011;13429;48.816;9.118;2023-01-10T08:48:33;13.40;;;2.85;;
25531;SDS011;13429;48.816;9.118;2023-01-10T08:51:03;11.43;;;2.30;;
25531;SDS011;13429;48.816;9.118;2023-01-10T08:53:29;8.32;;;2.28;;
25531;SDS011;13429;48.816;9.118;2023-01-10T08:55:55;10.23;;;2.80;;
25531;SDS011;13429;48.816;9.118;2023-01-10T08:58:21;7.13;;;2.22;;
25531;SDS011;13429;48.816;9.118;2023-01-10T09:00:47;10.65;;;3.28;;
25531;SDS011;13429;48.816;9.118;2023-01-10T09:03:15;9.90;;;2.40;;
25531;SDS011;13429;48.816;9.118;2023-01-10T09:05:41;9.27;;;2.70;;
25531;SDS011;13429;48.816;9.118;2023-01-10T09:08:07;8.15;;;3.25;;
25531;SDS011;13429;48.816;9.118;2023-01-10T09:10:33;14.68;;;2.85;;
25531;SDS011;13429;48.816;9.118;2023-01-10T09:12:58;11.05;;;3.08;;
25531;SDS011;13429;48.816;9.118;2023-01-10T09:15:27;10.82;;;3.10;;
25531;SDS011;13429;48.816;9.118;2023-01-10T09:17:54;7.40;;;2.38;;
25531;SDS011;13429;48.816;9.118;2023-01-10T09:20:21;9.25;;;2.38;;
25531;SDS011;13429;48.816;9.118;2023-01-10T09:22:47;8.23;;;2.42;;
25531;SDS011;13429;48.816;9.118;2023-01-10T09:25:13;8.93;;;2.63;;
25531;SDS011;13429;48.816;9.118;2023-01-10T09:27:39;11.75;;;2.13;;
25531;SDS011;13429;48.816;9.118;2023-01-10T09:30:06;9.82;;;2.20;;
25531;SDS011;13429;48.816;9.118;2023-01-10T09:32:32;10.52;;;2.22;;
25531;SDS011;13429;48.816;9.118;2023-01-10T09:34:58;8.70;;;2.00;;
25531;SDS011;13429;48.816;9.118;2023-01-10T09:37:24;10.27;;;2.20;;
25531;SDS011;13429;48.816;9.118;2023-01-10T09:39:50;10.57;;;2.22;;
25531;SDS011;13429;48.816;9.118;2023-01-10T09:47:26;10.80;;;1.65;;
25531;SDS011;13429;48.816;9.118;2023-01-10T09:52:33;6.45;;;1.63;;
25531;SDS011;13429;48.816;9.118;2023-01-10T09:55:04;6.88;;;1.65;;
25531;SDS011;13429;48.816;9.118;2023-01-10T09:57:31;7.45;;;1.95;;
25531;SDS011;13429;48.816;9.118;2023-01-10T09:59:56;5.93;;;1.67;;
25531;SDS011;13429;48.816;9.118;2023-01-10T10:02:30;7.15;;;1.60;;
25531;SDS011;13429;48.816;9.118;2023-01-10T10:10:15;7.80;;;1.83;;
25531;SDS011;13429;48.816;9.118;2023-01-10T10:15:17;7.18;;;1.45;;
25531;SDS011;13429;48.816;9.118;2023-01-10T10:17:48;5.82;;;1.77;;
25531;SDS011;13429;48.816;9.118;2023-01-10T10:30:43;7.82;;;2.58;;
25531;SDS011;13429;48.816;9.118;2023-01-10T10:35:48;5.47;;;1.65;;
25531;SDS011;13429;48.816;9.118;2023-01-10T10:38:21;7.88;;;1.85;;
25531;SDS011;13429;48.816;9.118;2023-01-10T10:40:49;9.27;;;2.22;;
25531;SDS011;13429;48.816;9.118;2023-01-10T10:43:21;4.78;;;1.42;;
25531;SDS011;13429;48.816;9.118;2023-01-10T10:45:54;8.00;;;1.88;;
25531;SDS011;13429;48.816;9.118;2023-01-10T10:48:24;4.47;;;1.55;;
25531;SDS011;13429;48.816;9.118;2023-01-10T10:53:17;3.83;;;1.30;;
25531;SDS011;13429;48.816;9.118;2023-01-10T10:55:43;7.30;;;2.53;;
25531;SDS011;13429;48.816;9.118;2023-01-10T10:58:10;7.65;;;2.25;;
25531;SDS011;13429;48.816;9.118;2023-01-10T11:00:37;6.32;;;1.60;;
25531;SDS011;13429;48.816;9.118;2023-01-10T11:05:41;7.03;;;2.10;;
25531;SDS011;13429;48.816;9.118;2023-01-10T11:08:08;5.40;;;1.88;;
25531;SDS011;13429;48.816;9.118;2023-01-10T11:10:52;10.00;;;2.42;;
25531;SDS011;13429;48.816;9.118;2023-01-10T11:18:26;2.78;;;1.38;;
25531;SDS011;13429;48.816;9.118;2023-01-10T11:20:53;7.55;;;2.22;;
25531;SDS011;13429;48.816;9.118;2023-01-10T11:23:28;3.75;;;1.42;;
25531;SDS011;13429;48.816;9.118;2023-01-10T11:25:55;4.35;;;1.45;;
25531;SDS011;13429;48.816;9.118;2023-01-10T11:28:22;10.32;;;2.22;;
25531;SDS011;13429;48.816;9.118;2023-01-10T11:30:49;7.70;;;2.33;;
25531;SDS011;13429;48.816;9.118;2023-01-10T11:33:20;8.00;;;1.33;;
25531;SDS011;13429;48.816;9.118;2023-01-10T11:35:57;7.20;;;2.72;;
25531;SDS011;13429;48.816;9.118;2023-01-10T11:38:24;8.80;;;1.83;;
25531;SDS011;13429;48.816;9.118;2023-01-10T11:43:30;7.53;;;1.65;;
25531;SDS011;13429;48.816;9.118;2023-01-10T11:45:58;7.72;;;1.60;;
25531;SDS011;13429;48.816;9.118;2023-01-10T11:48:26;9.70;;;2.03;;
25531;SDS011;13429;48.816;9.118;2023-01-10T11:50:56;7.03;;;1.77;;
25531;SDS011;13429;48.816;9.118;2023-01-10T11:53:28;9.38;;;2.30;;
25531;SDS011;13429;48.816;9.118;2023-01-10T11:55:55;9.57;;;2.80;;
25531;SDS011;13429;48.816;9.118;2023-01-10T11:58:21;8.32;;;2.00;;
25531;SDS011;13429;48.816;9.118;2023-01-10T12:00:48;8.60;;;2.25;;
25531;SDS011;13429;48.816;9.118;2023-01-10T12:03:29;4.10;;;1.42;;
25531;SDS011;13429;48.816;9.118;2023-01-10T12:05:58;7.50;;;1.63;;
25531;SDS011;13429;48.816;9.118;2023-01-10T12:08:26;10.43;;;2.00;;
25531;SDS011;13429;48.816;9.118;2023-01-10T12:10:59;10.13;;;1.77;;
25531;SDS011;13429;48.816;9.118;2023-01-10T12:13:26;9.40;;;1.70;;
25531;SDS011;13429;48.816;9.118;2023-01-10T12:16:03;5.80;;;1.77;;
25531;SDS011;13429;48.816;9.118;2023-01-10T12:18:38;5.57;;;1.55;;
25531;SDS011;13429;48.816;9.118;2023-01-10T12:21:04;7.68;;;1.30;;
25531;SDS011;13429;48.816;9.118;2023-01-10T12:23:31;7.45;;;1.80;;
25531;SDS011;13429;48.816;9.118;2023-01-10T12:26:00;4.38;;;1.50;;
25531;SDS011;13429;48.816;9.118;2023-01-10T12:28:27;9.98;;;1.70;;
25531;SDS011;13429;48.816;9.118;2023-01-10T12:30:54;2.90;;;1.48;;
25531;SDS011;13429;48.816;9.118;2023-01-10T12:33:22;6.90;;;1.42;;
25531;SDS011;13429;48.816;9.118;2023-01-10T12:35:54;4.68;;;1.30;;
25531;SDS011;13429;48.816;9.118;2023-01-10T12:38:26;8.73;;;1.20;;
25531;SDS011;13429;48.816;9.118;2023-01-10T12:41:14;7.80;;;1.35;;
25531;SDS011;13429;48.816;9.118;2023-01-10T12:44:02;3.97;;;1.27;;
25531;SDS011;13429;48.816;9.118;2023-01-10T12:46:49;5.75;;;1.35;;
25531;SDS011;13429;48.816;9.118;2023-01-10T12:49:23;7.93;;;1.48;;
25531;SDS011;13429;48.816;9.118;2023-01-10T12:51:51;8.35;;;1.58;;
25531;SDS011;13429;48.816;9.118;2023-01-10T12:54:20;8.48;;;1.27;;
25531;SDS011;13429;48.816;9.118;2023-01-10T12:56:47;5.93;;;1.33;;
25531;SDS011;13429;48.816;9.118;2023-01-10T12:59:17;6.47;;;1.27;;
25531;SDS011;13429;48.816;9.118;2023-01-10T13:01:44;3.88;;;0.98;;
25531;SDS011;13429;48.816;9.118;2023-01-10T13:04:15;4.00;;;1.20;;
25531;SDS011;13429;48.816;9.118;2023-01-10T13:06:43;6.82;;;2.10;;
25531;SDS011;13429;48.816;9.118;2023-01-10T13:09:13;5.80;;;1.40;;
25531;SDS011;13429;48.816;9.118;2023-01-10T13:12:02;5.47;;;1.48;;
25531;SDS011;13429;48.816;9.118;2023-01-10T13:14:49;6.40;;;2.55;;
25531;SDS011;13429;48.816;9.118;2023-01-10T13:22:43;4.15;;;1.33;;
25531;SDS011;13429;48.816;9.118;2023-01-10T13:25:20;7.82;;;1.58;;
25531;SDS011;13429;48.816;9.118;2023-01-10T13:27:50;5.40;;;1.70;;
25531;SDS011;13429;48.816;9.118;2023-01-10T13:30:36;5.15;;;1.67;;
25531;SDS011;13429;48.816;9.118;2023-01-10T13:33:16;5.95;;;1.17;;
25531;SDS011;13429;48.816;9.118;2023-01-10T13:35:45;9.63;;;2.53;;
25531;SDS011;13429;48.816;9.118;2023-01-10T13:40:55;7.22;;;1.63;;
25531;SDS011;13429;48.816;9.118;2023-01-10T13:43:29;10.48;;;2.85;;
25531;SDS011;13429;48.816;9.118;2023-01-10T13:51:23;5.90;;;1.30;;
25531;SDS011;13429;48.816;9.118;2023-01-10T13:58:54;5.80;;;1.23;;
25531;SDS011;13429;48.816;9.118;2023-01-10T14:01:39;6.45;;;1.98;;
25531;SDS011;13429;48.816;9.118;2023-01-10T14:04:25;2.72;;;1.17;;
25531;SDS011;13429;48.816;9.118;2023-01-10T14:06:53;6.50;;;1.10;;
25531;SDS011;13429;48.816;9.118;2023-01-10T14:11:53;6.35;;;1.20;;
25531;SDS011;13429;48.816;9.118;2023-01-10T14:16:51;3.53;;;1.20;;
25531;SDS011;13429;48.816;9.118;2023-01-10T14:19:31;5.28;;;1.10;;
25531;SDS011;13429;48.816;9.118;2023-01-10T14:21:58;4.93;;;1.25;;
25531;SDS011;13429;48.816;9.118;2023-01-10T14:24:35;5.60;;;1.25;;
25531;SDS011;13429;48.816;9.118;2023-01-10T14:27:02;7.13;;;1.50;;
25531;SDS011;13429;48.816;9.118;2023-01-10T14:29:29;12.35;;;2.30;;
25531;SDS011;13429;48.816;9.118;2023-01-10T14:31:57;8.00;;;1.58;;
25531;SDS011;13429;48.816;9.118;2023-01-10T14:34:29;4.40;;;1.33;;
25531;SDS011;13429;48.816;9.118;2023-01-10T14:36:57;5.28;;;1.80;;
25531;SDS011;13429;48.816;9.118;2023-01-10T14:39:23;8.48;;;2.00;;
25531;SDS011;13429;48.816;9.118;2023-01-10T14:41:51;4.65;;;1.38;;
25531;SDS011;13429;48.816;9.118;2023-01-10T14:44:29;3.95;;;1.33;;
25531;SDS011;13429;48.816;9.118;2023-01-10T14:46:56;7.10;;;1.80;;
25531;SDS011;13429;48.816;9.118;2023-01-10T14:49:29;4.32;;;1.10;;
25531;SDS011;13429;48.816;9.118;2023-01-10T14:54:36;6.28;;;1.30;;
25531;SDS011;13429;48.816;9.118;2023-01-10T14:59:48;3.72;;;1.40;;
25531;SDS011;13429;48.816;9.118;2023-01-10T15:02:16;4.72;;;1.30;;
25531;SDS011;13429;48.816;9.118;2023-01-10T15:07:22;6.63;;;2.03;;
25531;SDS011;13429;48.816;9.118;2023-01-10T15:09:49;6.30;;;1.40;;
25531;SDS011;13429;48.816;9.118;2023-01-10T15:12:16;6.28;;;1.88;;
25531;SDS011;13429;48.816;9.118;2023-01-10T15:14:42;4.05;;;1.75;;
25531;SDS011;13429;48.816;9.118;2023-01-10T15:17:24;8.18;;;1.80;;
25531;SDS011;13429;48.816;9.118;2023-01-10T15:19:51;4.55;;;1.50;;
25531;SDS011;13429;48.816;9.118;2023-01-10T15:25:53;4.63;;;1.40;;
25531;SDS011;13429;48.816;9.118;2023-01-10T15:27:45;10.30;;;1.50;;
25531;SDS011;13429;48.816;9.118;2023-01-10T15:30:22;4.35;;;1.50;;
25531;SDS011;13429;48.816;9.118;2023-01-10T15:32:48;7.18;;;1.90;;
25531;SDS011;13429;48.816;9.118;2023-01-10T15:35:15;3.40;;;1.38;;
25531;SDS011;13429;48.816;9.118;2023-01-10T15:37:44;10.00;;;1.95;;
25531;SDS011;13429;48.816;9.118;2023-01-10T15:46:16;3.25;;;1.40;;
25531;SDS011;13429;48.816;9.118;2023-01-10T15:51:26;12.93;;;3.50;;
25531;SDS011;13429;48.816;9.118;2023-01-10T15:56:30;5.70;;;1.60;;
25531;SDS011;13429;48.816;9.118;2023-01-10T15:58:57;5.65;;;1.52;;
25531;SDS011;13429;48.816;9.118;2023-01-10T16:01:24;5.70;;;1.40;;
25531;SDS011;13429;48.816;9.118;2023-01-10T16:04:04;4.63;;;1.60;;
25531;SDS011;13429;48.816;9.118;2023-01-10T16:06:39;5.93;;;1.30;;
25531;SDS011;13429;48.816;9.118;2023-01-10T16:09:07;4.95;;;1.58;;
25531;SDS011;13429;48.816;9.118;2023-01-10T16:14:32;9.10;;;1.97;;
25531;SDS011;13429;48.816;9.118;2023-01-10T16:17:01;9.68;;;1.50;;
25531;SDS011;13429;48.816;9.118;2023-01-10T16:19:27;6.85;;;1.73;;
25531;SDS011;13429;48.816;9.118;2023-01-10T16:21:54;7.10;;;2.35;;
25531;SDS011;13429;48.816;9.118;2023-01-10T16:24:30;5.00;;;1.52;;
25531;SDS011;13429;48.816;9.118;2023-01-10T16:26:57;9.98;;;1.88;;
25531;SDS011;13429;48.816;9.118;2023-01-10T16:29:24;4.20;;;1.75;;
25531;SDS011;13429;48.816;9.118;2023-01-10T16:31:50;3.45;;;1.42;;
25531;SDS011;13429;48.816;9.118;2023-01-10T16:34:17;7.15;;;2.05;;
25531;SDS011;13429;48.816;9.118;2023-01-10T16:36:43;6.70;;;1.45;;
25531;SDS011;13429;48.816;9.118;2023-01-10T16:39:12;11.63;;;1.60;;
25531;SDS011;13429;48.816;9.118;2023-01-10T16:41:38;6.43;;;1.60;;
25531;SDS011;13429;48.816;9.118;2023-01-10T16:44:23;6.82;;;1.58;;